Time;durP1;ratioP1;P1;durP2;ratioP2;P2;SDS_P1;SDS_P2;PMS_P1;PMS_P2;Temp;Humidity;BMP_temperature;BMP_pressure;BME280_temperature;BME280_humidity;BME280_pressure;Samples;Min_cycle;Max_cycle;Signal;HPM_P1;HPM_P2
2022/02/16 00:01:24;;;;;;;61.92;30.25;;;5.60;71.80;;;;;;5055297;28;19986;-77
2022/02/16 00:03:50;;;;;;;50.90;24.10;;;5.70;71.90;;;;;;5072606;28;20044;-76
2022/02/16 00:06:16;;;;;;;51.70;25.23;;;5.70;71.80;;;;;;5072023;28;20454;-76
2022/02/16 00:08:42;;;;;;;41.28;22.35;;;5.70;71.70;;;;;;5073814;28;20048;-76
2022/02/16 00:11:08;;;;;;;38.25;16.98;;;5.60;71.60;;;;;;5055239;28;20038;-76
2022/02/16 00:13:34;;;;;;;42.92;19.10;;;5.60;71.70;;;;;;5071365;28;20779;-76
2022/02/16 00:16:08;;;;;;;63.42;28.50;;;5.70;71.70;;;;;;5055031;28;20028;-76
2022/02/16 00:18:36;;;;;;;63.50;28.80;;;5.60;71.00;;;;;;5073634;28;20040;-76
2022/02/16 00:21:03;;;;;;;60.55;29.27;;;5.60;71.60;;;;;;5071683;28;20056;-76
2022/02/16 00:23:29;;;;;;;48.55;22.95;;;5.60;71.60;;;;;;5055471;28;20401;-77
2022/02/16 00:25:56;;;;;;;42.60;21.25;;;5.60;71.80;;;;;;5071669;28;20032;-75
2022/02/16 00:28:22;;;;;;;47.30;20.40;;;5.60;71.80;;;;;;5071141;28;20048;-77
2022/02/16 00:30:48;;;;;;;51.28;20.35;;;5.60;71.60;;;;;;5071586;28;20036;-77
2022/02/16 00:33:14;;;;;;;54.05;21.63;;;5.60;71.70;;;;;;5071753;28;20036;-76
2022/02/16 00:35:41;;;;;;;59.97;25.05;;;5.60;71.90;;;;;;5071437;28;20113;-76
2022/02/16 00:38:07;;;;;;;59.67;27.90;;;5.50;71.90;;;;;;5071868;28;20040;-76
2022/02/16 00:40:33;;;;;;;53.55;25.30;;;5.40;72.10;;;;;;5071451;28;20043;-76
2022/02/16 00:43:00;;;;;;;51.78;21.40;;;5.40;72.20;;;;;;5072786;28;20115;-77
2022/02/16 00:45:26;;;;;;;45.63;20.42;;;5.30;73.10;;;;;;5070717;28;20037;-76
2022/02/16 00:47:52;;;;;;;132.88;54.63;;;5.30;72.30;;;;;;5071717;28;20123;-76
2022/02/16 00:50:18;;;;;;;;;;;5.10;72.40;;;;;;5072926;28;20094;-76
2022/02/16 00:52:44;;;;;;;129.88;53.10;;;5.10;72.40;;;;;;5071660;28;19912;-77
2022/02/16 00:55:11;;;;;;;61.03;26.35;;;5.00;72.50;;;;;;5072336;28;20108;-77
2022/02/16 00:57:37;;;;;;;;;;;4.90;72.10;;;;;;5072179;28;20029;-76
2022/02/16 01:00:05;;;;;;;112.22;40.80;;;4.90;72.80;;;;;;5071715;28;19923;-76
2022/02/16 01:02:31;;;;;;;135.85;36.80;;;4.70;72.80;;;;;;5071173;28;20079;-76
2022/02/16 01:04:57;;;;;;;73.82;19.17;;;4.80;73.00;;;;;;5072810;28;20078;-76
2022/02/16 01:07:24;;;;;;;69.88;15.57;;;4.80;73.00;;;;;;5071137;28;20070;-77
2022/02/16 01:09:50;;;;;;;74.13;14.48;;;4.80;72.10;;;;;;5071667;28;20041;-76
2022/02/16 01:12:16;;;;;;;105.80;15.55;;;4.90;72.60;;;;;;5071158;28;20032;-76
2022/02/16 01:14:42;;;;;;;109.05;16.08;;;5.00;72.40;;;;;;5070234;28;20036;-76
2022/02/16 01:17:08;;;;;;;100.75;21.00;;;5.00;73.30;;;;;;5072507;28;20067;-77
2022/02/16 01:19:34;;;;;;;117.85;22.85;;;5.00;72.40;;;;;;5071618;28;20044;-76
2022/02/16 01:22:02;;;;;;;159.43;25.73;;;5.00;72.80;;;;;;5070929;28;20032;-76
2022/02/16 01:24:29;;;;;;;131.02;22.80;;;5.00;72.80;;;;;;5071468;28;20051;-76
2022/02/16 01:26:56;;;;;;;89.03;18.75;;;4.90;72.80;;;;;;5070793;28;20036;-77
2022/02/16 01:29:23;;;;;;;100.32;21.90;;;4.90;73.00;;;;;;5070378;28;20044;-76
2022/02/16 01:31:51;;;;;;;96.00;19.98;;;4.80;72.50;;;;;;5070869;28;20064;-77
2022/02/16 01:34:17;;;;;;;85.07;18.13;;;4.80;73.30;;;;;;5054398;28;20064;-76
2022/02/16 01:36:43;;;;;;;109.13;18.23;;;4.80;72.90;;;;;;5070850;28;20056;-76
2022/02/16 01:39:10;;;;;;;60.50;16.13;;;4.80;73.60;;;;;;5071267;28;20486;-76
2022/02/16 01:41:36;;;;;;;;;;;4.80;73.60;;;;;;5071367;28;20029;-75
2022/02/16 01:44:04;;;;;;;62.75;13.27;;;4.70;73.40;;;;;;5071456;28;19928;-76
2022/02/16 01:46:30;;;;;;;69.70;14.73;;;4.60;73.40;;;;;;5054021;28;20036;-76
2022/02/16 01:48:56;;;;;;;;;;;4.50;73.10;;;;;;5073051;28;20064;-76
2022/02/16 01:51:23;;;;;;;53.53;13.18;;;4.50;73.70;;;;;;5053862;28;19916;-77
2022/02/16 01:53:49;;;;;;;73.38;15.02;;;4.40;73.50;;;;;;5054441;28;20032;-76
2022/02/16 01:56:16;;;;;;;107.97;14.10;;;4.40;73.80;;;;;;5071832;28;20024;-76
2022/02/16 01:58:42;;;;;;;74.97;13.00;;;4.40;73.80;;;;;;5058265;28;20166;-76
2022/02/16 02:01:09;;;;;;;68.80;12.95;;;4.40;73.80;;;;;;5056750;28;20093;-77
2022/02/16 02:03:35;;;;;;;;;;;4.30;73.20;;;;;;5076541;28;20390;-76
2022/02/16 02:06:01;;;;;;;73.28;12.93;;;4.30;72.90;;;;;;5074330;28;20409;-77
2022/02/16 02:08:27;;;;;;;83.97;14.02;;;4.40;73.40;;;;;;5076175;28;20067;-76
2022/02/16 02:11:14;;;;;;;58.90;13.65;;;4.40;73.30;;;;;;5074264;28;20113;-76
2022/02/16 02:13:54;;;;;;;72.35;15.75;;;4.50;73.40;;;;;;5075851;28;20043;-76
2022/02/16 02:16:20;;;;;;;55.92;16.38;;;4.50;73.30;;;;;;5074555;28;20032;-77
2022/02/16 02:18:46;;;;;;;124.95;20.08;;;4.50;73.20;;;;;;5057831;28;20040;-76
2022/02/16 02:21:12;;;;;;;85.78;21.08;;;4.60;73.10;;;;;;5075267;28;20036;-77
2022/02/16 02:23:38;;;;;;;74.97;20.80;;;4.70;73.10;;;;;;5074441;28;20487;-76
2022/02/16 02:26:05;;;;;;;97.43;18.83;;;4.70;72.90;;;;;;5074005;28;20032;-77
2022/02/16 02:28:31;;;;;;;;;;;4.80;72.80;;;;;;5075002;28;20040;-76
2022/02/16 02:30:57;;;;;;;65.05;16.92;;;4.80;72.50;;;;;;5072874;28;19924;-76
2022/02/16 02:33:23;;;;;;;57.28;17.15;;;4.80;72.50;;;;;;5057586;28;20396;-76
2022/02/16 02:35:51;;;;;;;41.53;11.70;;;4.80;72.70;;;;;;5073805;28;20044;-76
2022/02/16 02:38:17;;;;;;;33.58;10.68;;;4.90;72.80;;;;;;5074119;28;20036;-75
2022/02/16 02:40:44;;;;;;;24.10;9.65;;;4.90;72.80;;;;;;5073669;28;20038;-76
2022/02/16 02:43:10;;;;;;;26.10;10.48;;;5.00;72.80;;;;;;5075414;28;20040;-76
2022/02/16 02:45:37;;;;;;;32.78;12.63;;;5.00;72.70;;;;;;5055929;28;20045;-76
2022/02/16 02:48:04;;;;;;;45.50;12.02;;;5.00;72.80;;;;;;5075217;28;20044;-76
2022/02/16 02:50:30;;;;;;;30.45;11.20;;;5.10;72.20;;;;;;5056777;28;20036;-76
2022/02/16 02:52:57;;;;;;;28.42;11.77;;;5.20;72.90;;;;;;5073966;28;20047;-76
2022/02/16 02:55:23;;;;;;;40.10;11.85;;;5.30;72.70;;;;;;5056524;28;20043;-76
2022/02/16 02:57:49;;;;;;;43.63;16.70;;;5.30;72.50;;;;;;5073826;28;20040;-76
2022/02/16 03:00:15;;;;;;;55.78;17.70;;;5.30;72.50;;;;;;5072307;28;20044;-76
2022/02/16 03:02:42;;;;;;;39.92;14.80;;;5.30;72.50;;;;;;5074817;28;20048;-76
2022/02/16 03:05:10;;;;;;;74.80;15.88;;;5.30;72.70;;;;;;5074429;28;20370;-75
2022/02/16 03:07:36;;;;;;;48.05;14.60;;;5.20;72.60;;;;;;5073902;28;20024;-77
2022/02/16 03:10:03;;;;;;;50.65;15.63;;;5.30;72.90;;;;;;5074648;28;20036;-77
2022/02/16 03:12:29;;;;;;;64.20;15.15;;;5.30;72.80;;;;;;5075025;28;20032;-76
2022/02/16 03:14:55;;;;;;;55.38;14.20;;;5.20;73.10;;;;;;5072453;28;20044;-76
2022/02/16 03:17:24;;;;;;;60.97;14.52;;;5.20;73.30;;;;;;5056298;28;20068;-76
2022/02/16 03:19:51;;;;;;;58.08;14.43;;;5.30;73.30;;;;;;5075047;28;20094;-77
2022/02/16 03:22:19;;;;;;;38.72;14.70;;;5.30;73.00;;;;;;5072979;28;20060;-76
2022/02/16 03:24:46;;;;;;;54.08;14.43;;;5.30;73.00;;;;;;5073521;28;20086;-76
2022/02/16 03:27:12;;;;;;;46.72;15.43;;;5.30;72.80;;;;;;5072790;28;20024;-76
2022/02/16 03:29:39;;;;;;;52.75;16.27;;;5.30;72.20;;;;;;5074409;28;20054;-76
2022/02/16 03:32:05;;;;;;;55.50;15.05;;;5.40;72.80;;;;;;5072451;28;20294;-77
2022/02/16 03:34:31;;;;;;;55.22;17.17;;;5.30;72.20;;;;;;5074173;28;20041;-77
2022/02/16 03:36:58;;;;;;;50.75;17.10;;;5.30;72.80;;;;;;5072690;28;20111;-76
2022/02/16 03:39:24;;;;;;;42.15;14.55;;;5.30;72.10;;;;;;5073181;28;20408;-77
2022/02/16 03:41:50;;;;;;;41.53;15.75;;;5.40;72.70;;;;;;5072610;28;20029;-76
2022/02/16 03:44:16;;;;;;;38.58;17.83;;;5.40;72.10;;;;;;5074542;28;20480;-77
2022/02/16 03:46:44;;;;;;;52.50;19.52;;;5.40;72.80;;;;;;5072843;28;20040;-76
2022/02/16 03:49:10;;;;;;;44.70;16.02;;;5.40;72.70;;;;;;5074298;28;20036;-76
2022/02/16 03:51:36;;;;;;;38.05;13.40;;;5.40;72.80;;;;;;5055633;28;20111;-75
2022/02/16 03:54:03;;;;;;;46.25;12.15;;;5.40;72.80;;;;;;5074108;28;20055;-76
2022/02/16 03:56:29;;;;;;;60.50;10.23;;;5.40;72.50;;;;;;5073495;28;20025;-77
2022/02/16 03:58:55;;;;;;;65.10;12.05;;;5.30;73.20;;;;;;5072725;28;20507;-76
2022/02/16 04:01:21;;;;;;;57.50;14.30;;;5.30;73.20;;;;;;5071313;28;20047;-77
2022/02/16 04:03:47;;;;;;;;;;;5.30;72.70;;;;;;5072938;28;20109;-76
2022/02/16 04:06:13;;;;;;;76.55;14.93;;;5.20;73.20;;;;;;5072054;28;19912;-76
2022/02/16 04:08:40;;;;;;;68.88;15.55;;;5.20;73.40;;;;;;5072386;28;20400;-75
2022/02/16 04:11:06;;;;;;;50.47;14.60;;;5.10;73.60;;;;;;5055262;28;20028;-77
2022/02/16 04:13:32;;;;;;;51.25;15.48;;;5.10;74.50;;;;;;5055701;28;20497;-76
2022/02/16 04:15:58;;;;;;;40.10;16.50;;;5.00;73.20;;;;;;5070805;28;20071;-76
2022/02/16 04:18:25;;;;;;;35.60;17.00;;;5.00;74.10;;;;;;5072189;28;20123;-76
2022/02/16 04:20:51;;;;;;;37.80;15.15;;;5.00;73.30;;;;;;5071742;28;20401;-76
2022/02/16 04:23:17;;;;;;;34.42;12.45;;;5.10;73.80;;;;;;5055428;28;20063;-77
2022/02/16 04:25:43;;;;;;;28.80;11.52;;;5.10;73.40;;;;;;5072939;28;20029;-76
2022/02/16 04:28:09;;;;;;;30.55;12.35;;;5.10;73.20;;;;;;5071997;28;20048;-77
2022/02/16 04:30:35;;;;;;;;;;;5.10;72.50;;;;;;5071171;28;20086;-76
2022/02/16 04:33:01;;;;;;;21.58;10.88;;;5.10;73.00;;;;;;5071820;28;19924;-76
2022/02/16 04:35:28;;;;;;;36.75;17.60;;;5.10;72.80;;;;;;5071463;28;20036;-76
2022/02/16 04:37:54;;;;;;;;;;;5.20;72.60;;;;;;5073676;28;20115;-76
2022/02/16 04:40:20;;;;;;;21.02;10.18;;;5.20;72.60;;;;;;5071448;28;20400;-76
2022/02/16 04:42:46;;;;;;;;;;;5.20;72.30;;;;;;5072323;28;20485;-76
2022/02/16 04:45:12;;;;;;;20.63;10.60;;;5.20;72.40;;;;;;5071214;28;19924;-76
2022/02/16 04:47:38;;;;;;;20.45;10.60;;;5.20;72.40;;;;;;5071993;28;20358;-76
2022/02/16 04:50:07;;;;;;;22.00;10.07;;;5.20;72.40;;;;;;5072687;28;20044;-76
2022/02/16 04:55:18;;;;;;;25.10;12.48;;;5.40;72.50;;;;;;5072415;28;20113;-76
2022/02/16 04:57:44;;;;;;;32.17;15.60;;;5.40;72.40;;;;;;5054782;28;20031;-76
2022/02/16 05:00:10;;;;;;;29.00;14.60;;;5.30;72.70;;;;;;5070990;28;20055;-76
2022/02/16 05:02:36;;;;;;;;;;;5.30;72.80;;;;;;5070915;28;20078;-76
2022/02/16 05:05:02;;;;;;;30.25;15.23;;;5.30;72.60;;;;;;5072721;28;19920;-76
2022/02/16 05:07:29;;;;;;;25.83;12.13;;;5.30;72.30;;;;;;5054336;28;20457;-76
2022/02/16 05:09:55;;;;;;;28.00;14.27;;;5.40;72.40;;;;;;5072568;28;20127;-75
2022/02/16 05:12:21;;;;;;;29.25;14.77;;;5.40;72.30;;;;;;5054234;28;20036;-77
2022/02/16 05:14:47;;;;;;;30.67;16.23;;;5.40;72.20;;;;;;5071238;28;20056;-76
2022/02/16 05:17:13;;;;;;;38.78;19.02;;;5.50;72.20;;;;;;5069980;28;20035;-76
2022/02/16 05:19:39;;;;;;;50.67;22.83;;;5.50;72.20;;;;;;5071517;28;20120;-76
2022/02/16 05:22:06;;;;;;;28.45;15.73;;;5.50;72.20;;;;;;5072016;28;20068;-76
2022/02/16 05:24:32;;;;;;;28.05;14.00;;;5.40;72.40;;;;;;5071494;28;20050;-77
2022/02/16 05:26:58;;;;;;;28.67;14.85;;;5.40;72.80;;;;;;5070885;28;20028;-76
2022/02/16 05:29:24;;;;;;;;;;;5.40;72.50;;;;;;5055215;28;20051;-76
2022/02/16 05:31:51;;;;;;;27.98;12.95;;;5.30;72.50;;;;;;5072383;28;19916;-76
2022/02/16 05:34:17;;;;;;;26.77;12.23;;;5.30;72.30;;;;;;5057407;28;20141;-77
2022/02/16 05:36:44;;;;;;;23.17;12.57;;;5.30;72.60;;;;;;5074191;28;20470;-76
2022/02/16 05:39:10;;;;;;;24.58;11.63;;;5.30;72.70;;;;;;5075360;28;20044;-76
2022/02/16 05:41:36;;;;;;;;;;;5.30;72.70;;;;;;5076631;28;20032;-77
2022/02/16 05:44:03;;;;;;;47.17;21.50;;;5.40;71.60;;;;;;5075206;28;20006;-77
2022/02/16 05:46:30;;;;;;;43.28;21.38;;;5.40;71.90;;;;;;5056919;28;20074;-76
2022/02/16 05:48:56;;;;;;;39.10;19.17;;;5.50;72.10;;;;;;5058437;28;20131;-77
2022/02/16 05:51:22;;;;;;;21.73;11.93;;;5.50;72.10;;;;;;5074705;28;20547;-76
2022/02/16 05:53:49;;;;;;;23.25;10.38;;;5.50;72.30;;;;;;5076159;28;20401;-76
2022/02/16 05:56:15;;;;;;;22.23;10.07;;;5.50;73.10;;;;;;5057830;28;20130;-76
2022/02/16 05:58:41;;;;;;;17.40;9.35;;;5.50;72.30;;;;;;5076058;28;20064;-76
2022/02/16 06:01:07;;;;;;;18.67;11.23;;;5.50;72.20;;;;;;5074751;28;20064;-76
2022/02/16 06:03:34;;;;;;;21.95;12.20;;;5.60;72.20;;;;;;5074729;28;20056;-76
2022/02/16 06:06:00;;;;;;;29.60;12.20;;;5.60;71.50;;;;;;5075452;28;20040;-76
2022/02/16 06:08:27;;;;;;;30.83;14.98;;;5.70;72.10;;;;;;5058053;28;20039;-77
2022/02/16 06:10:56;;;;;;;27.25;12.55;;;5.70;71.90;;;;;;5074274;28;20032;-77
2022/02/16 06:13:23;;;;;;;30.83;14.57;;;5.70;71.80;;;;;;5074673;28;20075;-77
2022/02/16 06:15:49;;;;;;;30.80;14.35;;;5.70;71.70;;;;;;5073950;28;20436;-77
2022/02/16 06:18:15;;;;;;;40.28;19.02;;;5.80;71.70;;;;;;5056953;28;20040;-76
2022/02/16 06:20:41;;;;;;;;;;;5.80;71.60;;;;;;5057970;28;20234;-77
2022/02/16 06:23:07;;;;;;;56.97;24.13;;;5.90;71.50;;;;;;5074407;28;19920;-76
2022/02/16 06:25:33;;;;;;;54.53;24.10;;;5.90;71.50;;;;;;5074053;28;20031;-76
2022/02/16 06:28:03;;;;;;;61.22;23.50;;;5.90;71.50;;;;;;5075554;28;20398;-76
2022/02/16 06:30:30;;;;;;;54.85;22.45;;;6.00;71.50;;;;;;5075170;28;20496;-76
2022/02/16 06:32:57;;;;;;;51.38;21.17;;;6.00;71.40;;;;;;5073391;28;20120;-77
2022/02/16 06:35:24;;;;;;;51.92;22.70;;;6.00;71.40;;;;;;5073756;28;20090;-77
2022/02/16 06:37:50;;;;;;;94.95;29.85;;;6.00;70.90;;;;;;5075370;28;20044;-76
2022/02/16 06:40:16;;;;;;;;;;;6.10;71.70;;;;;;5074200;28;20481;-76
2022/02/16 06:42:42;;;;;;;72.75;28.50;;;6.10;71.40;;;;;;5057433;28;19917;-76
2022/02/16 06:45:11;;;;;;;79.82;31.50;;;6.20;71.20;;;;;;5073459;28;20033;-77
2022/02/16 06:47:38;;;;;;;88.97;31.63;;;6.20;71.10;;;;;;5073186;28;20025;-76
2022/02/16 06:50:05;;;;;;;79.00;30.58;;;6.30;71.00;;;;;;5073864;28;20029;-76
2022/02/16 06:52:32;;;;;;;68.10;28.63;;;6.50;70.90;;;;;;5073847;28;20128;-76
2022/02/16 06:54:58;;;;;;;76.78;34.38;;;6.60;70.70;;;;;;5057064;28;20032;-76
2022/02/16 06:57:24;;;;;;;78.32;32.78;;;6.70;70.80;;;;;;5074720;28;20028;-77
2022/02/16 06:59:50;;;;;;;77.13;32.80;;;6.70;70.80;;;;;;5073938;28;20067;-76
2022/02/16 07:02:17;;;;;;;73.80;28.90;;;6.80;70.70;;;;;;5072307;28;20052;-76
2022/02/16 07:04:43;;;;;;;88.95;31.25;;;6.90;70.70;;;;;;5075426;28;20393;-76
2022/02/16 07:07:09;;;;;;;93.85;34.03;;;6.80;70.80;;;;;;5073218;28;20119;-76
2022/02/16 07:09:35;;;;;;;52.40;23.23;;;6.90;71.10;;;;;;5073827;28;20044;-77
2022/02/16 07:12:01;;;;;;;49.22;22.35;;;6.90;71.10;;;;;;5073183;28;20032;-76
2022/02/16 07:14:27;;;;;;;70.25;28.45;;;6.90;71.10;;;;;;5073517;28;20083;-77
2022/02/16 07:16:53;;;;;;;72.00;29.85;;;7.00;71.10;;;;;;5073228;28;20123;-77
2022/02/16 07:19:22;;;;;;;;;;;7.00;71.00;;;;;;5057464;28;20075;-76
2022/02/16 07:21:48;;;;;;;72.22;29.10;;;7.00;71.10;;;;;;5074182;28;19913;-76
2022/02/16 07:24:14;;;;;;;58.20;25.27;;;7.00;71.00;;;;;;5074949;28;20478;-75
2022/02/16 07:26:40;;;;;;;72.30;29.08;;;7.00;71.00;;;;;;5074208;28;20036;-76
2022/02/16 07:29:07;;;;;;;60.40;24.52;;;7.00;70.90;;;;;;5073247;28;20041;-76
2022/02/16 07:31:33;;;;;;;46.47;21.70;;;7.00;71.10;;;;;;5074024;28;20032;-77
2022/02/16 07:33:59;;;;;;;;;;;7.00;71.30;;;;;;5074185;28;20041;-76
2022/02/16 07:36:25;;;;;;;30.27;14.95;;;7.00;71.20;;;;;;5056023;28;19912;-77
2022/02/16 07:38:51;;;;;;;41.72;18.75;;;7.00;70.40;;;;;;5073216;28;20097;-76
2022/02/16 07:41:18;;;;;;;32.50;15.48;;;7.10;71.40;;;;;;5072729;28;20043;-76
2022/02/16 07:43:44;;;;;;;26.88;13.70;;;7.00;71.30;;;;;;5073026;28;20115;-76
2022/02/16 07:46:10;;;;;;;25.45;11.50;;;7.10;71.40;;;;;;5072502;28;20047;-77
2022/02/16 07:48:36;;;;;;;27.70;14.88;;;7.10;71.40;;;;;;5073347;28;20029;-77
2022/02/16 07:51:02;;;;;;;;;;;7.10;71.40;;;;;;5056227;28;20041;-76
2022/02/16 07:53:29;;;;;;;36.75;18.00;;;7.20;71.10;;;;;;5072315;28;19931;-75
2022/02/16 07:55:55;;;;;;;31.67;15.77;;;7.30;70.90;;;;;;5072135;28;20106;-76
2022/02/16 07:58:23;;;;;;;33.47;14.90;;;7.40;70.80;;;;;;5072633;28;20033;-76
2022/02/16 08:00:49;;;;;;;34.97;15.10;;;7.50;70.90;;;;;;5072242;28;20494;-76
2022/02/16 08:03:15;;;;;;;51.00;22.63;;;7.50;70.90;;;;;;5054930;28;20119;-76
2022/02/16 08:05:42;;;;;;;;;;;7.60;70.80;;;;;;5072650;28;20209;-76
2022/02/16 08:08:09;;;;;;;41.72;19.45;;;7.50;70.90;;;;;;5072543;28;19959;-76
2022/02/16 08:10:35;;;;;;;39.50;17.98;;;7.60;70.70;;;;;;5073180;28;20097;-76
2022/02/16 08:13:02;;;;;;;39.38;19.08;;;7.60;70.80;;;;;;5073508;28;20098;-76
2022/02/16 08:15:31;;;;;;;31.52;16.55;;;7.60;70.30;;;;;;5071744;28;20028;-76
2022/02/16 08:17:58;;;;;;;33.60;15.13;;;7.80;70.90;;;;;;5071225;28;20101;-76
2022/02/16 08:20:24;;;;;;;29.85;16.08;;;7.80;70.70;;;;;;5055124;28;20039;-76
2022/02/16 08:22:50;;;;;;;40.00;20.17;;;7.90;70.80;;;;;;5073436;28;20040;-76
2022/02/16 08:25:18;;;;;;;43.22;20.13;;;8.00;70.70;;;;;;5072906;28;20032;-77
2022/02/16 08:27:45;;;;;;;42.17;19.60;;;8.10;71.50;;;;;;5055639;28;20560;-77
2022/02/16 08:30:13;;;;;;;37.75;19.73;;;8.20;70.60;;;;;;5071592;28;20029;-76
2022/02/16 08:32:40;;;;;;;38.67;18.63;;;8.30;70.30;;;;;;5071139;28;20396;-77
2022/02/16 08:35:10;;;;;;;34.75;16.90;;;8.50;69.90;;;;;;5054881;28;20511;-76
2022/02/16 08:37:37;;;;;;;37.35;17.90;;;8.70;69.70;;;;;;5055462;28;20120;-76
2022/02/16 08:40:05;;;;;;;32.15;18.08;;;8.80;69.30;;;;;;5071725;28;20036;-76
2022/02/16 08:42:31;;;;;;;34.10;17.70;;;9.00;69.10;;;;;;5072893;28;20025;-76
2022/02/16 08:44:58;;;;;;;26.15;12.00;;;9.70;68.40;;;;;;5071747;28;20036;-76
2022/02/16 08:47:25;;;;;;;36.83;16.63;;;10.10;67.00;;;;;;5071747;28;20051;-75
2022/02/16 08:49:52;;;;;;;39.05;17.52;;;10.00;66.90;;;;;;5051808;28;20037;-77
2022/02/16 08:52:19;;;;;;;31.48;13.32;;;10.30;67.90;;;;;;5051398;28;20020;-77
2022/02/16 08:54:46;;;;;;;22.73;11.75;;;10.80;66.30;;;;;;5053297;28;20124;-76
2022/02/16 08:57:12;;;;;;;23.65;12.07;;;10.90;66.40;;;;;;5051156;28;20090;-76
2022/02/16 08:59:38;;;;;;;23.23;10.15;;;11.00;66.40;;;;;;5051821;28;20119;-76
2022/02/16 09:02:05;;;;;;;20.80;10.48;;;11.20;66.30;;;;;;5050990;28;20052;-76
2022/02/16 09:04:31;;;;;;;;;;;11.30;65.80;;;;;;5068653;28;20059;-76
2022/02/16 09:09:43;;;;;;;23.08;11.93;;;11.90;64.90;;;;;;5071899;28;20106;-77
2022/02/16 09:12:10;;;;;;;20.13;10.05;;;12.70;62.80;;;;;;5072329;28;20050;-76
2022/02/16 09:14:36;;;;;;;21.83;9.93;;;12.60;62.30;;;;;;5072987;28;20445;-77
2022/02/16 09:17:03;;;;;;;;;;;12.50;62.90;;;;;;5054810;28;20120;-77
2022/02/16 09:19:32;;;;;;;30.10;15.60;;;12.50;64.20;;;;;;5070515;28;19921;-76
2022/02/16 09:21:58;;;;;;;23.08;10.95;;;12.60;63.20;;;;;;5070885;28;20036;-76
2022/02/16 09:24:24;;;;;;;17.55;7.60;;;13.10;61.90;;;;;;5054821;28;20043;-77
2022/02/16 09:26:52;;;;;;;15.60;7.85;;;13.10;60.60;;;;;;5070927;28;20040;-76
2022/02/16 09:29:20;;;;;;;12.43;6.82;;;13.10;60.70;;;;;;5071403;28;20098;-78
2022/02/16 09:31:48;;;;;;;19.33;6.88;;;12.90;60.50;;;;;;5070940;28;20533;-76
2022/02/16 09:34:15;;;;;;;16.58;9.50;;;13.00;60.30;;;;;;5070333;28;20439;-77
2022/02/16 09:36:41;;;;;;;18.48;9.77;;;12.70;61.10;;;;;;5054174;28;20024;-79
2022/02/16 09:39:07;;;;;;;20.60;9.95;;;12.40;61.80;;;;;;5071183;28;20101;-77
2022/02/16 09:41:33;;;;;;;20.60;11.02;;;12.00;62.40;;;;;;5070873;28;20028;-77
2022/02/16 09:44:00;;;;;;;21.90;11.25;;;11.70;63.20;;;;;;5071054;28;20051;-78
2022/02/16 09:46:28;;;;;;;19.80;9.10;;;11.60;63.60;;;;;;5070742;28;20395;-77
2022/02/16 09:48:56;;;;;;;18.23;8.88;;;11.40;63.50;;;;;;5070243;28;20044;-76
2022/02/16 09:51:23;;;;;;;18.23;9.30;;;11.20;63.80;;;;;;5070607;28;20075;-76
2022/02/16 09:53:49;;;;;;;19.02;9.65;;;11.20;63.90;;;;;;5054387;28;20532;-76
2022/02/16 09:56:15;;;;;;;;;;;11.10;64.30;;;;;;5071082;28;20054;-78
2022/02/16 09:58:41;;;;;;;19.38;8.82;;;11.00;64.20;;;;;;5071072;28;19920;-76
2022/02/16 10:01:26;;;;;;;25.45;9.70;;;10.90;64.00;;;;;;5053855;28;20070;-78
2022/02/16 10:04:11;;;;;;;17.58;8.25;;;10.80;63.80;;;;;;5069893;28;20044;-78
2022/02/16 10:06:59;;;;;;;18.27;8.85;;;10.90;64.30;;;;;;5070546;28;20028;-78
2022/02/16 10:09:43;;;;;;;20.30;8.85;;;10.80;64.00;;;;;;5054358;28;20090;-78
2022/02/16 10:12:10;;;;;;;15.20;6.70;;;10.90;64.00;;;;;;5070454;28;20032;-78
2022/02/16 10:14:39;;;;;;;19.77;8.70;;;11.10;63.50;;;;;;5072502;28;20044;-77
2022/02/16 10:17:26;;;;;;;17.20;7.78;;;11.10;63.20;;;;;;5071345;28;20028;-76
2022/02/16 10:20:12;;;;;;;16.15;7.95;;;11.10;63.50;;;;;;5075284;28;20044;-78
2022/02/16 10:22:57;;;;;;;15.93;8.25;;;11.10;63.40;;;;;;5075805;28;20024;-78
2022/02/16 10:25:29;;;;;;;16.98;8.52;;;11.00;63.50;;;;;;5073991;28;20025;-78
2022/02/16 10:28:38;;;;;;;15.45;8.02;;;11.10;63.30;;;;;;5074563;28;20037;-77
2022/02/16 10:31:07;;;;;;;16.55;7.93;;;11.30;62.70;;;;;;5057213;28;20036;-76
2022/02/16 10:33:36;;;;;;;14.88;7.78;;;11.40;62.00;;;;;;5073317;28;20036;-78
2022/02/16 10:36:27;;;;;;;16.15;8.52;;;11.40;62.10;;;;;;5073692;28;20492;-78
2022/02/16 10:39:34;;;;;;;17.27;8.35;;;11.50;62.30;;;;;;5058446;28;20576;-77
2022/02/16 10:42:01;;;;;;;13.18;6.85;;;11.20;62.10;;;;;;5075336;28;20032;-78
2022/02/16 10:44:31;;;;;;;15.68;7.45;;;11.10;62.70;;;;;;5074188;28;20041;-76
2022/02/16 10:47:00;;;;;;;13.82;6.72;;;11.00;62.30;;;;;;5074852;28;20043;-76
2022/02/16 10:49:28;;;;;;;14.57;7.25;;;11.00;62.40;;;;;;5056542;28;20050;-78
2022/02/16 10:52:33;;;;;;;14.82;7.75;;;11.10;62.60;;;;;;5074735;28;20546;-76
2022/02/16 10:55:02;;;;;;;11.85;6.55;;;11.20;62.60;;;;;;5073866;28;20119;-76
2022/02/16 10:57:29;;;;;;;12.52;6.28;;;11.20;61.70;;;;;;5074929;28;20064;-76
2022/02/16 10:59:57;;;;;;;11.30;6.13;;;11.20;61.80;;;;;;5073812;28;20047;-78
2022/02/16 11:02:24;;;;;;;15.25;7.65;;;11.30;60.80;;;;;;5073196;28;20046;-77
2022/02/16 11:04:54;;;;;;;13.63;6.95;;;11.70;61.30;;;;;;5072851;28;20032;-78
2022/02/16 11:07:23;;;;;;;13.20;6.72;;;12.20;60.10;;;;;;5073336;28;20100;-78
2022/02/16 11:09:55;;;;;;;12.60;6.50;;;12.70;59.20;;;;;;5073842;28;20032;-77
2022/02/16 11:12:21;;;;;;;12.02;6.35;;;13.00;58.10;;;;;;5073271;28;20036;-78
2022/02/16 11:14:47;;;;;;;;;;;13.60;57.00;;;;;;5074158;28;20032;-78
2022/02/16 11:17:14;;;;;;;12.55;6.22;;;13.70;56.90;;;;;;5074326;28;19923;-77
2022/02/16 11:19:40;;;;;;;12.15;6.40;;;13.50;56.30;;;;;;5072724;28;20036;-77
2022/02/16 11:22:26;;;;;;;13.20;6.95;;;13.50;56.60;;;;;;5072897;28;20514;-77
2022/02/16 11:24:53;;;;;;;15.90;7.68;;;13.40;56.70;;;;;;5073484;28;20211;-78
2022/02/16 11:27:38;;;;;;;11.20;5.80;;;13.40;57.30;;;;;;5072776;28;20033;-76
2022/02/16 11:30:49;;;;;;;12.85;6.55;;;15.20;52.70;;;;;;5055494;28;20037;-77
2022/02/16 11:33:34;;;;;;;15.63;7.65;;;14.60;53.10;;;;;;5074657;28;20537;-77
2022/02/16 11:36:01;;;;;;;14.40;6.50;;;14.00;54.80;;;;;;5071761;28;20058;-76
2022/02/16 11:38:46;;;;;;;13.10;6.82;;;13.60;55.30;;;;;;5073152;28;20040;-76
2022/02/16 11:41:31;;;;;;;11.45;5.82;;;13.30;56.20;;;;;;5056059;28;20032;-77
2022/02/16 11:44:02;;;;;;;11.15;6.18;;;13.20;56.60;;;;;;5072962;28;20389;-76
2022/02/16 11:46:54;;;;;;;13.70;7.20;;;13.20;56.30;;;;;;5055873;28;20103;-77
2022/02/16 11:49:38;;;;;;;11.95;6.40;;;13.40;55.90;;;;;;5072066;28;20474;-76
2022/02/16 11:52:44;;;;;;;12.00;6.20;;;13.30;56.10;;;;;;5072255;28;20032;-76
2022/02/16 11:55:47;;;;;;;12.07;5.88;;;13.30;56.10;;;;;;5072478;28;20040;-77
2022/02/16 11:58:32;;;;;;;11.05;6.22;;;13.20;56.00;;;;;;5056003;28;20450;-76
2022/02/16 12:01:04;;;;;;;11.40;6.13;;;12.90;55.70;;;;;;5073362;28;20033;-76
2022/02/16 12:03:51;;;;;;;11.43;5.82;;;12.70;56.50;;;;;;5072644;28;20060;-76
2022/02/16 12:06:23;;;;;;;9.63;5.40;;;12.40;56.70;;;;;;5071261;28;20064;-76
2022/02/16 12:09:06;;;;;;;10.73;6.00;;;12.30;57.20;;;;;;5073997;28;20481;-76
2022/02/16 12:11:32;;;;;;;15.25;6.97;;;12.30;56.90;;;;;;5072051;28;20508;-77
2022/02/16 12:14:18;;;;;;;;;;;12.40;57.20;;;;;;5056228;28;20075;-76
2022/02/16 12:17:02;;;;;;;13.15;6.03;;;12.60;56.50;;;;;;5055366;28;19917;-76
2022/02/16 12:19:29;;;;;;;11.60;5.72;;;12.70;55.50;;;;;;5071503;28;20044;-76
2022/02/16 12:21:56;;;;;;;11.75;5.68;;;12.70;56.10;;;;;;5073054;28;20436;-78
2022/02/16 12:24:41;;;;;;;9.55;4.82;;;12.70;56.30;;;;;;5072386;28;20497;-76
2022/02/16 12:27:08;;;;;;;10.70;5.93;;;12.80;56.00;;;;;;5071645;28;20059;-77
2022/02/16 12:29:39;;;;;;;9.68;5.13;;;13.40;54.80;;;;;;5073749;28;20036;-77
2022/02/16 12:32:08;;;;;;;9.18;4.63;;;13.60;53.60;;;;;;5072887;28;20033;-76
2022/02/16 12:34:35;;;;;;;9.02;5.38;;;13.90;52.20;;;;;;5054650;28;20048;-76
2022/02/16 12:37:21;;;;;;;19.42;12.90;;;14.10;52.80;;;;;;5072786;28;20032;-77
2022/02/16 12:40:10;;;;;;;10.07;5.68;;;14.60;51.50;;;;;;5071985;28;20033;-76
2022/02/16 12:42:44;;;;;;;10.55;5.72;;;14.40;51.60;;;;;;5072183;28;20028;-76
2022/02/16 12:45:17;;;;;;;14.05;6.55;;;14.30;52.20;;;;;;5071570;28;20186;-76
2022/02/16 12:47:45;;;;;;;16.90;9.73;;;14.20;52.40;;;;;;5073099;28;20036;-77
2022/02/16 12:50:12;;;;;;;11.65;6.60;;;14.20;53.00;;;;;;5070356;28;20032;-76
2022/02/16 12:52:39;;;;;;;12.23;6.72;;;14.80;50.70;;;;;;5072883;28;20047;-76
2022/02/16 12:55:09;;;;;;;10.27;4.85;;;15.80;49.90;;;;;;5054614;28;20123;-76
2022/02/16 12:57:37;;;;;;;7.80;4.88;;;15.80;49.00;;;;;;5071759;28;20111;-77